Terminal Aerodrome Forecast
Issued by NWS Louisville, KY

Home | Current Version | Previous Version | Text Only | Print | Product List | Glossary On
Versions: 1 2 3 4 5 6 7 8 9 10 11 12 13 14 15
360
FTUS43 KLMK 032109 AAA
TAFLEX
TAF AMD
KLEX 032109Z 0321/0418 35004KT P6SM OVC150
     FM040300 06004KT P6SM OVC090
     FM041300 10007KT 5SM BR VCSH OVC030=

USA.gov is the U.S. government's official web portal to all federal, state and local government web resources and services.